Airport Name : Split

Other Name : Split Kastela

ICAO : LDSP

IATA : SPU

FAA :

Latitude : 43.538944

Longitude : 16.297964

Country : Croatia

Local Date and Time : 8/22/2018 7:46:00 AM

 

TAF (Terminal Aerodrome Forecast)

TAF LDSP 220525Z 2206/2306 04005KT CAVOK TX34/2212Z TN24/2303Z BECMG 2210/2212 23012KT PROB30 TEMPO 2213/2217 TS FEW050CB BECMG 2220/2222 VRB02KT

 

METAR (METeorological Aerodrome Report)

LDSP 220530Z 00000KT CAVOK 27/17 Q1015 NOSIG

LDSP 220500Z VRB01KT CAVOK 25/14 Q1015 NOSIG

LDSP 220430Z 04003KT 360V060 CAVOK 24/14 Q1014 NOSIG

LDSP 220400Z AUTO 34006KT CAVOK 25/14 Q1014 NOSIG

LDSP 220330Z AUTO VRB01KT CAVOK 24/14 Q1014 NOSIG

LDSP 220300Z AUTO 34005KT CAVOK 25/14 Q1014 NOSIG

LDSP 220230Z AUTO VRB02KT CAVOK 25/15 Q1014 NOSIG

LDSP 220200Z AUTO 34004KT 260V350 CAVOK 24/14 Q1014 NOSIG